createdAt,value
2018-09-22T00:02:09.032Z,101267.52
2018-09-22T00:04:40.244Z,101259.59
2018-09-22T00:07:09.333Z,101252.50
2018-09-22T00:09:39.336Z,101269.20
2018-09-22T00:12:08.974Z,101275.36
2018-09-22T00:14:38.934Z,101276.85
2018-09-22T00:17:10.496Z,101281.62
2018-09-22T00:19:42.645Z,101287.93
2018-09-22T00:22:11.887Z,101298.05
2018-09-22T00:24:41.991Z,101292.91
2018-09-22T00:27:11.292Z,101293.23
2018-09-22T00:29:40.240Z,101309.83
2018-09-22T00:32:09.791Z,101314.30
2018-09-22T00:34:38.981Z,101313.29
2018-09-22T00:37:08.389Z,101318.67
2018-09-22T00:39:37.274Z,101312.20
2018-09-22T00:42:06.660Z,101312.41
2018-09-22T00:44:36.102Z,101316.53
2018-09-22T00:47:04.852Z,101311.13
2018-09-22T00:49:34.286Z,101317.77
2018-09-22T00:52:03.087Z,101313.07
2018-09-22T00:54:32.058Z,101335.00
2018-09-22T00:57:01.261Z,101319.47
2018-09-22T00:59:30.099Z,101326.62
2018-09-22T01:01:58.919Z,101325.69
2018-09-22T01:04:28.266Z,101332.17
2018-09-22T01:06:58.841Z,101334.59
2018-09-22T01:09:28.116Z,101334.97
2018-09-22T01:11:57.496Z,101330.96
2018-09-22T01:14:26.378Z,101335.31
2018-09-22T01:17:12.610Z,101347.39
2018-09-22T01:19:42.602Z,101347.77
2018-09-22T01:22:11.837Z,101353.63
2018-09-22T01:24:41.570Z,101364.23
2018-09-22T01:27:10.394Z,101372.06
2018-09-22T01:29:39.328Z,101364.34
2018-09-22T01:32:08.258Z,101371.38
2018-09-22T01:34:36.911Z,101372.06
2018-09-22T01:37:06.961Z,101391.28
2018-09-22T01:39:35.919Z,101389.20
2018-09-22T01:42:05.285Z,101387.08
2018-09-22T01:44:34.211Z,101391.44
2018-09-22T01:47:04.986Z,101396.66
2018-09-22T01:49:34.391Z,101391.50
2018-09-22T01:52:03.781Z,101398.05
2018-09-22T01:54:32.680Z,101396.04
2018-09-22T01:57:09.766Z,101395.97
2018-09-22T01:59:39.837Z,101406.36
2018-09-22T02:02:12.763Z,101408.94
2018-09-22T02:04:42.453Z,101405.25
2018-09-22T02:07:11.361Z,101403.33
2018-09-22T02:09:41.590Z,101411.88
2018-09-22T02:12:10.895Z,101400.63
2018-09-22T02:14:40.241Z,101402.82
2018-09-22T02:17:09.230Z,101413.84
2018-09-22T02:19:39.081Z,101417.47
2018-09-22T02:22:09.217Z,101423.11
2018-09-22T02:24:38.936Z,101426.80
2018-09-22T02:27:07.894Z,101421.41
2018-09-22T02:29:37.048Z,101420.88
2018-09-22T02:32:07.043Z,101427.22
2018-09-22T02:34:42.584Z,101427.64
2018-09-22T02:37:11.362Z,101424.85
2018-09-22T02:39:41.375Z,101423.67
2018-09-22T02:42:10.181Z,101428.89
2018-09-22T02:44:39.091Z,101421.55
2018-09-22T02:47:08.931Z,101425.58
2018-09-22T02:49:40.373Z,101428.16
2018-09-22T02:52:09.631Z,101436.31
2018-09-22T02:54:38.630Z,101425.80
2018-09-22T02:57:09.201Z,101434.57
2018-09-22T02:59:38.343Z,101438.47
2018-09-22T03:02:07.543Z,101436.52
2018-09-22T03:04:37.544Z,101436.23
2018-09-22T03:07:08.349Z,101438.75
2018-09-22T03:09:39.560Z,101440.07
2018-09-22T03:12:09.272Z,101431.81
2018-09-22T03:14:40.597Z,101432.55
2018-09-22T03:17:11.654Z,101425.38
2018-09-22T03:19:40.834Z,101439.03
2018-09-22T03:22:10.943Z,101447.17
2018-09-22T03:24:40.377Z,101452.99
2018-09-22T03:27:09.564Z,101442.16
2018-09-22T03:29:38.510Z,101450.27
2018-09-22T03:32:07.756Z,101458.02
2018-09-22T03:34:37.823Z,101452.34
2018-09-22T03:37:08.962Z,101458.33
2018-09-22T03:39:37.704Z,101459.55
2018-09-22T03:42:07.660Z,101467.36
2018-09-22T03:44:36.597Z,101464.05
2018-09-22T03:47:05.545Z,101460.39
2018-09-22T03:49:34.844Z,101465.02
2018-09-22T03:52:04.090Z,101467.86
2018-09-22T03:54:33.202Z,101468.06
2018-09-22T03:57:02.059Z,101469.25
2018-09-22T03:59:31.424Z,101457.85
2018-09-22T04:02:00.395Z,101457.78
2018-09-22T04:04:29.205Z,101472.49
2018-09-22T04:06:58.495Z,101474.41
2018-09-22T04:09:27.373Z,101475.73
2018-09-22T04:11:56.867Z,101476.78
2018-09-22T04:14:25.711Z,101480.30
2018-09-22T04:16:54.446Z,101485.91
2018-09-22T04:19:23.604Z,101484.66
2018-09-22T04:21:52.471Z,101478.45
2018-09-22T04:24:23.093Z,101486.72
2018-09-22T04:26:52.657Z,101494.34
2018-09-22T04:29:22.290Z,101489.36
2018-09-22T04:31:51.215Z,101498.64
2018-09-22T04:34:20.795Z,101500.20
2018-09-22T04:36:49.557Z,101501.28
2018-09-22T04:39:21.139Z,101495.25
2018-09-22T04:41:49.989Z,101495.32
2018-09-22T04:44:19.924Z,101501.63
2018-09-22T04:46:49.657Z,101500.38
2018-09-22T04:49:20.000Z,101507.97
2018-09-22T04:51:48.828Z,101510.30
2018-09-22T04:54:17.867Z,101506.86
2018-09-22T04:56:46.613Z,101517.06
2018-09-22T04:59:15.364Z,101521.17
2018-09-22T05:01:44.277Z,101521.31
2018-09-22T05:04:13.162Z,101519.18
2018-09-22T05:06:42.004Z,101518.44
2018-09-22T05:09:12.730Z,101523.73
2018-09-22T05:11:42.136Z,101517.54
2018-09-22T05:14:11.355Z,101530.98
2018-09-22T05:16:41.158Z,101529.66
2018-09-22T05:19:09.945Z,101538.86
2018-09-22T05:21:39.239Z,101537.66
2018-09-22T05:24:08.190Z,101537.70
2018-09-22T05:26:37.202Z,101542.42
2018-09-22T05:29:07.133Z,101545.52
2018-09-22T05:31:36.113Z,101551.02
2018-09-22T05:34:05.920Z,101549.75
2018-09-22T05:36:35.561Z,101559.41
2018-09-22T05:39:05.163Z,101563.38
2018-09-22T05:41:33.958Z,101570.58
2018-09-22T05:44:02.847Z,101567.61
2018-09-22T05:46:32.040Z,101561.80
2018-09-22T05:49:01.436Z,101558.66
2018-09-22T05:51:39.145Z,101560.34
2018-09-22T05:54:08.653Z,101562.47
2018-09-22T05:56:38.244Z,101563.66
2018-09-22T05:59:07.778Z,101569.09
2018-09-22T06:01:36.670Z,101563.80
2018-09-22T06:04:05.974Z,101569.08
2018-09-22T06:06:34.945Z,101569.61
2018-09-22T06:09:05.170Z,101562.82
2018-09-22T06:11:34.179Z,101565.11
2018-09-22T06:14:03.217Z,101564.66
2018-09-22T06:16:32.351Z,101574.34
2018-09-22T06:19:01.542Z,101572.53
2018-09-22T06:21:32.590Z,101568.56
2018-09-22T06:24:02.088Z,101576.57
2018-09-22T06:26:31.383Z,101562.36
2018-09-22T06:29:00.683Z,101561.48
2018-09-22T06:31:29.573Z,101549.25
2018-09-22T06:33:58.263Z,101569.30
2018-09-22T06:36:28.037Z,101567.52
2018-09-22T06:38:57.718Z,101549.09
2018-09-22T06:41:27.916Z,101542.02
2018-09-22T06:43:57.897Z,101548.97
2018-09-22T06:46:26.874Z,101554.93
2018-09-22T06:48:58.575Z,101558.91
2018-09-22T06:51:27.367Z,101573.22
2018-09-22T06:53:58.603Z,101568.44
2018-09-22T06:56:28.538Z,101577.86
2018-09-22T06:58:57.869Z,101573.16
2018-09-22T07:01:26.927Z,101575.25
2018-09-22T07:03:56.914Z,101574.20
2018-09-22T07:06:25.786Z,101583.94
2018-09-22T07:08:56.561Z,101589.09
2018-09-22T07:11:25.460Z,101586.00
2018-09-22T07:13:54.998Z,101575.20
2018-09-22T07:16:24.054Z,101575.20
2018-09-22T07:18:53.706Z,101585.25
2018-09-22T07:21:27.675Z,101575.56
2018-09-22T07:23:56.563Z,101577.16
2018-09-22T07:26:26.371Z,101578.14
2018-09-22T07:28:55.085Z,101574.44
2018-09-22T07:31:24.226Z,101587.48
2018-09-22T07:33:53.289Z,101589.30
2018-09-22T07:36:22.703Z,101607.23
2018-09-22T07:38:53.225Z,101613.72
2018-09-22T07:41:22.247Z,101615.88
2018-09-22T07:43:51.937Z,101610.65
2018-09-22T07:46:24.865Z,101605.48
2018-09-22T07:48:56.465Z,101604.05
2018-09-22T07:51:28.556Z,101601.25
2018-09-22T07:53:59.025Z,101596.08
2018-09-22T07:56:29.569Z,101603.48
2018-09-22T07:58:59.651Z,101602.59
2018-09-22T08:01:29.928Z,101598.25
2018-09-22T08:03:59.210Z,101615.47
2018-09-22T08:06:28.634Z,101621.02
2018-09-22T08:08:59.912Z,101621.67
2018-09-22T08:11:29.326Z,101623.00
2018-09-22T08:13:59.119Z,101631.02
2018-09-22T08:16:28.708Z,101630.34
2018-09-22T08:19:05.764Z,101630.94
2018-09-22T08:21:35.957Z,101644.22
2018-09-22T08:24:05.206Z,101628.86
2018-09-22T08:26:36.172Z,101629.96
2018-09-22T08:29:07.377Z,101630.19
2018-09-22T08:31:37.052Z,101623.92
2018-09-22T08:34:08.676Z,101619.64
2018-09-22T08:36:38.488Z,101624.95
2018-09-22T08:39:11.522Z,101619.11
2018-09-22T08:41:43.720Z,101623.74
2018-09-22T08:44:13.022Z,101620.78
2018-09-22T08:46:41.884Z,101624.61
2018-09-22T08:49:12.161Z,101626.32
2018-09-22T08:51:41.276Z,101621.01
2018-09-22T08:54:16.570Z,101615.48
2018-09-22T08:56:45.327Z,101616.55
2018-09-22T08:59:15.049Z,101596.39
2018-09-22T09:01:44.052Z,101599.37
2018-09-22T09:04:14.035Z,101610.61
2018-09-22T09:06:43.358Z,101609.28
2018-09-22T09:09:13.271Z,101601.62
2018-09-22T09:11:49.693Z,101605.84
2018-09-22T09:14:18.759Z,101613.73
2018-09-22T09:16:48.994Z,101617.48
2018-09-22T09:19:18.238Z,101636.14
2018-09-22T09:21:47.852Z,101628.88
2018-09-22T09:24:18.462Z,101618.81
2018-09-22T09:26:49.201Z,101615.91
2018-09-22T09:29:19.644Z,101611.59
2018-09-22T09:31:49.317Z,101595.17
2018-09-22T09:34:18.523Z,101587.88
2018-09-22T09:36:49.768Z,101572.39
2018-09-22T09:39:19.551Z,101575.97
2018-09-22T09:41:49.751Z,101589.80
2018-09-22T09:44:19.546Z,101579.45
2018-09-22T09:46:48.524Z,101574.88
2018-09-22T09:49:17.617Z,101560.89
2018-09-22T09:51:47.162Z,101570.05
2018-09-22T09:54:16.295Z,101560.23
2018-09-22T09:56:45.015Z,101552.24
2018-09-22T09:59:13.998Z,101564.16
2018-09-22T10:01:42.824Z,101575.59
2018-09-22T10:04:14.097Z,101564.40
2018-09-22T10:06:42.919Z,101573.45
2018-09-22T10:09:12.793Z,101571.06
2018-09-22T10:11:41.578Z,101558.98
2018-09-22T10:14:11.036Z,101549.66
2018-09-22T10:16:41.066Z,101540.41
2018-09-22T10:19:10.740Z,101537.25
2018-09-22T10:21:40.018Z,101536.56
2018-09-22T10:24:10.364Z,101526.31
2018-09-22T10:26:39.421Z,101526.31
2018-09-22T10:29:08.717Z,101527.02
2018-09-22T10:31:37.961Z,101529.55
2018-09-22T10:34:07.192Z,101532.25
2018-09-22T10:36:36.158Z,101534.33
2018-09-22T10:39:06.578Z,101525.38
2018-09-22T10:41:35.353Z,101533.88
2018-09-22T10:44:04.339Z,101532.42
2018-09-22T10:46:33.098Z,101531.39
2018-09-22T10:49:07.306Z,101536.95
2018-09-22T10:51:36.131Z,101518.28
2018-09-22T10:54:04.912Z,101516.74
2018-09-22T10:56:33.800Z,101518.67
2018-09-22T10:59:02.534Z,101513.72
2018-09-22T11:01:31.693Z,101524.93
2018-09-22T11:04:00.689Z,101518.66
2018-09-22T11:06:29.687Z,101523.22
2018-09-22T11:08:58.387Z,101533.44
2018-09-22T11:11:27.176Z,101529.13
2018-09-22T11:13:57.480Z,101519.50
2018-09-22T11:16:28.732Z,101524.66
2018-09-22T11:18:58.976Z,101515.80
2018-09-22T11:21:29.023Z,101519.13
2018-09-22T11:23:58.443Z,101527.41
2018-09-22T11:26:27.390Z,101531.61
2018-09-22T11:28:56.703Z,101526.75
2018-09-22T11:31:26.579Z,101530.29
2018-09-22T11:33:56.323Z,101518.84
2018-09-22T11:36:25.326Z,101517.03
2018-09-22T11:38:54.169Z,101518.64
2018-09-22T11:41:23.034Z,101507.86
2018-09-22T11:43:51.810Z,101511.30
2018-09-22T11:46:21.727Z,101504.08
2018-09-22T11:48:50.531Z,101502.25
2018-09-22T11:51:21.259Z,101500.34
2018-09-22T11:53:50.126Z,101499.97
2018-09-22T11:56:20.683Z,101503.50
2018-09-22T11:58:49.863Z,101500.45
2018-09-22T12:01:22.627Z,101500.56
2018-09-22T12:03:52.186Z,101487.50
2018-09-22T12:06:22.071Z,101482.06
2018-09-22T12:08:51.131Z,101484.19
2018-09-22T12:11:20.895Z,101492.00
2018-09-22T12:13:49.768Z,101485.89
2018-09-22T12:16:20.329Z,101489.70
2018-09-22T12:18:55.286Z,101495.20
2018-09-22T12:21:25.285Z,101492.28
2018-09-22T12:23:54.659Z,101487.05
2018-09-22T12:26:27.123Z,101479.98
2018-09-22T12:28:56.940Z,101484.55
2018-09-22T12:31:27.217Z,101488.55
2018-09-22T12:33:56.055Z,101500.16
2018-09-22T12:36:25.963Z,101495.60
2018-09-22T12:38:55.261Z,101492.37
2018-09-22T12:41:25.433Z,101492.55
2018-09-22T12:43:56.332Z,101504.19
2018-09-22T12:46:26.470Z,101512.83
2018-09-22T12:48:56.062Z,101498.35
2018-09-22T12:51:25.455Z,101499.03
2018-09-22T12:53:55.423Z,101501.33
2018-09-22T12:56:24.780Z,101505.70
2018-09-22T12:58:54.221Z,101495.22
2018-09-22T13:01:23.483Z,101499.98
2018-09-22T13:03:53.936Z,101506.36
2018-09-22T13:06:23.546Z,101502.36
2018-09-22T13:08:53.737Z,101498.47
2018-09-22T13:11:23.452Z,101482.26
2018-09-22T13:13:56.930Z,101484.55
2018-09-22T13:16:32.810Z,101489.22
2018-09-22T13:19:01.973Z,101492.94
2018-09-22T13:21:31.393Z,101485.23
2018-09-22T13:24:00.390Z,101503.59
2018-09-22T13:26:31.745Z,101495.14
2018-09-22T13:29:00.829Z,101505.96
2018-09-22T13:31:30.035Z,101519.00
2018-09-22T13:33:59.847Z,101512.30
2018-09-22T13:36:30.884Z,101513.98
2018-09-22T13:38:59.986Z,101521.09
2018-09-22T13:41:29.922Z,101525.13
2018-09-22T13:43:59.355Z,101532.00
2018-09-22T13:46:29.948Z,101542.27
2018-09-22T13:48:58.803Z,101559.83
2018-09-22T13:51:29.457Z,101556.41
2018-09-22T13:53:58.388Z,101559.33
2018-09-22T13:56:29.992Z,101554.47
2018-09-22T13:58:59.403Z,101561.02
2018-09-22T14:01:29.611Z,101559.16
2018-09-22T14:03:58.729Z,101541.87
2018-09-22T14:06:28.034Z,101544.16
2018-09-22T14:08:57.794Z,101534.00
2018-09-22T14:11:27.722Z,101529.71
2018-09-22T14:13:57.116Z,101522.28
2018-09-22T14:16:26.173Z,101503.68
2018-09-22T14:18:56.140Z,101489.09
2018-09-22T14:21:25.282Z,101479.88
2018-09-22T14:23:54.274Z,101487.30
2018-09-22T14:26:23.083Z,101488.89
2018-09-22T14:28:52.376Z,101491.09
2018-09-22T14:31:22.280Z,101486.34
2018-09-22T14:33:51.244Z,101498.52
2018-09-22T14:36:20.891Z,101504.20
2018-09-22T14:38:49.790Z,101503.35
2018-09-22T14:41:18.843Z,101520.16
2018-09-22T14:43:54.630Z,101520.95
2018-09-22T14:46:24.363Z,101511.42
2018-09-22T14:48:54.392Z,101514.91
2018-09-22T14:51:24.336Z,101515.80
2018-09-22T14:53:53.461Z,101511.39
2018-09-22T14:56:23.325Z,101507.75
2018-09-22T14:58:52.371Z,101507.64
2018-09-22T15:01:21.323Z,101510.08
2018-09-22T15:03:50.346Z,101505.38
2018-09-22T15:06:20.159Z,101508.95
2018-09-22T15:08:50.394Z,101506.90
2018-09-22T15:11:19.430Z,101500.64
2018-09-22T15:13:48.432Z,101493.06
2018-09-22T15:16:17.275Z,101481.99
2018-09-22T15:18:46.373Z,101477.67
2018-09-22T15:21:15.758Z,101490.87
2018-09-22T15:23:44.522Z,101491.89
2018-09-22T15:26:14.371Z,101488.48
2018-09-22T15:28:43.277Z,101490.19
2018-09-22T15:31:12.360Z,101487.91
2018-09-22T15:33:41.400Z,101491.13
2018-09-22T15:36:10.706Z,101492.00
2018-09-22T15:38:40.600Z,101493.70
2018-09-22T15:41:09.535Z,101492.64
2018-09-22T15:43:39.387Z,101489.50
2018-09-22T15:46:08.924Z,101480.70
2018-09-22T15:48:38.882Z,101487.37
2018-09-22T15:51:08.069Z,101489.80
2018-09-22T15:53:38.999Z,101480.97
2018-09-22T15:56:09.710Z,101497.13
2018-09-22T15:58:39.388Z,101502.58
2018-09-22T16:01:08.356Z,101504.77
2018-09-22T16:03:37.246Z,101504.50
2018-09-22T16:06:06.367Z,101508.03
2018-09-22T16:08:35.288Z,101507.16
2018-09-22T16:11:05.371Z,101512.61
2018-09-22T16:13:35.409Z,101505.94
2018-09-22T16:16:05.883Z,101495.97
2018-09-22T16:18:35.572Z,101495.81
2018-09-22T16:21:04.501Z,101490.87
2018-09-22T16:23:33.619Z,101488.30
2018-09-22T16:26:05.565Z,101485.41
2018-09-22T16:28:34.423Z,101480.40
2018-09-22T16:31:04.068Z,101474.67
2018-09-22T16:33:32.977Z,101475.84
2018-09-22T16:36:02.352Z,101469.88
2018-09-22T16:38:31.473Z,101480.03
2018-09-22T16:41:00.898Z,101469.02
2018-09-22T16:43:29.971Z,101460.97
2018-09-22T16:45:59.869Z,101462.09
2018-09-22T16:48:28.969Z,101463.17
2018-09-22T16:50:59.149Z,101475.69
2018-09-22T16:53:30.740Z,101465.17
2018-09-22T16:56:01.205Z,101466.80
2018-09-22T16:58:33.306Z,101467.09
2018-09-22T17:01:02.521Z,101456.25
2018-09-22T17:03:31.783Z,101444.33
2018-09-22T17:06:00.830Z,101455.06
2018-09-22T17:08:30.789Z,101448.72
2018-09-22T17:11:01.461Z,101441.13
2018-09-22T17:13:31.167Z,101455.20
2018-09-22T17:16:01.123Z,101459.98
2018-09-22T17:18:31.352Z,101450.33
2018-09-22T17:21:00.853Z,101447.16
2018-09-22T17:23:31.054Z,101442.00
2018-09-22T17:26:00.132Z,101442.14
2018-09-22T17:28:29.362Z,101441.65
2018-09-22T17:30:58.253Z,101434.78
2018-09-22T17:33:27.310Z,101434.78
2018-09-22T17:35:56.867Z,101435.76
2018-09-22T17:38:25.949Z,101429.48
2018-09-22T17:40:55.908Z,101438.69
2018-09-22T17:43:25.122Z,101449.66
2018-09-22T17:45:55.464Z,101452.97
2018-09-22T17:48:24.386Z,101458.40
2018-09-22T17:51:00.222Z,101461.67
2018-09-22T17:53:29.530Z,101462.58
2018-09-22T17:56:00.163Z,101461.53
2018-09-22T17:58:33.030Z,101468.28
2018-09-22T18:01:02.139Z,101464.38
2018-09-22T18:03:33.474Z,101454.98
2018-09-22T18:06:03.616Z,101455.37
2018-09-22T18:08:34.661Z,101455.75
2018-09-22T18:11:10.987Z,101451.78
2018-09-22T18:13:42.267Z,101453.45
2018-09-22T18:16:15.129Z,101455.09
2018-09-22T18:18:44.211Z,101456.55
2018-09-22T18:21:13.940Z,101459.06
2018-09-22T18:23:43.009Z,101454.84
2018-09-22T18:26:13.124Z,101462.12
2018-09-22T18:28:42.324Z,101460.91
2018-09-22T18:31:11.470Z,101450.39
2018-09-22T18:33:41.130Z,101457.63
2018-09-22T18:36:10.040Z,101470.25
2018-09-22T18:38:39.353Z,101470.01
2018-09-22T18:41:08.390Z,101467.43
2018-09-22T18:43:37.304Z,101465.69
2018-09-22T18:46:06.309Z,101451.19
2018-09-22T18:48:36.244Z,101454.42
2018-09-22T18:51:05.137Z,101465.02
2018-09-22T18:53:34.405Z,101469.92
2018-09-22T18:56:03.960Z,101477.34
2018-09-22T18:58:34.196Z,101477.63
2018-09-22T19:01:04.030Z,101473.72
2018-09-22T19:03:33.975Z,101474.11
2018-09-22T19:06:03.951Z,101476.69
2018-09-22T19:08:33.807Z,101479.78
2018-09-22T19:11:03.421Z,101472.33
2018-09-22T19:13:42.134Z,101463.65
2018-09-22T19:16:15.485Z,101470.92
2018-09-22T19:18:55.075Z,101458.69
2018-09-22T19:21:27.678Z,101458.48
2018-09-22T19:24:00.557Z,101453.47
2018-09-22T19:26:39.570Z,101447.82
2018-09-22T19:29:14.013Z,101451.41
2018-09-22T19:31:51.148Z,101451.92
2018-09-22T19:34:24.667Z,101451.15
2018-09-22T19:36:57.462Z,101458.16
2018-09-22T19:39:38.639Z,101450.31
2018-09-22T19:42:26.282Z,101457.38
2018-09-22T19:45:00.297Z,101467.06
2018-09-22T19:47:35.535Z,101461.73
2018-09-22T19:50:07.574Z,101464.87
2018-09-22T19:52:46.912Z,101457.06
2018-09-22T19:55:15.919Z,101449.64
2018-09-22T19:57:45.329Z,101444.87
2018-09-22T20:00:15.052Z,101443.96
2018-09-22T20:02:44.301Z,101452.55
2018-09-22T20:05:13.162Z,101454.39
2018-09-22T20:07:42.956Z,101454.07
2018-09-22T20:10:11.935Z,101443.13
2018-09-22T20:12:40.764Z,101448.11
2018-09-22T20:15:09.826Z,101450.42
2018-09-22T20:17:38.911Z,101448.62
2018-09-22T20:20:08.149Z,101446.39
2018-09-22T20:22:37.175Z,101455.17
2018-09-22T20:25:06.771Z,101457.95
2018-09-22T20:27:36.227Z,101450.33
2018-09-22T20:30:05.999Z,101444.72
2018-09-22T20:32:34.858Z,101442.98
2018-09-22T20:35:04.319Z,101433.34
2018-09-22T20:37:35.883Z,101430.75
2018-09-22T20:40:05.757Z,101444.78
2018-09-22T20:42:34.779Z,101438.69
2018-09-22T20:45:04.634Z,101436.98
2018-09-22T20:47:33.449Z,101423.34
2018-09-22T20:50:02.301Z,101412.75
2018-09-22T20:52:31.302Z,101422.02
2018-09-22T20:55:00.130Z,101420.76
2018-09-22T20:57:30.674Z,101419.30
2018-09-22T20:59:59.843Z,101410.31
2018-09-22T21:02:35.385Z,101407.59
2018-09-22T21:05:07.017Z,101407.28
2018-09-22T21:07:36.371Z,101404.11
2018-09-22T21:10:06.240Z,101397.50
2018-09-22T21:12:35.288Z,101395.63
2018-09-22T21:15:04.937Z,101386.25
2018-09-22T21:17:36.749Z,101381.86
2018-09-22T21:20:06.229Z,101386.45
2018-09-22T21:22:35.254Z,101378.90
2018-09-22T21:25:04.519Z,101385.51
2018-09-22T21:27:33.683Z,101377.25
2018-09-22T21:30:02.512Z,101373.80
2018-09-22T21:32:31.609Z,101373.35
2018-09-22T21:35:00.410Z,101380.03
2018-09-22T21:37:29.274Z,101390.12
2018-09-22T21:39:58.272Z,101376.90
2018-09-22T21:42:27.294Z,101372.03
2018-09-22T21:44:56.157Z,101368.00
2018-09-22T21:47:25.235Z,101359.94
2018-09-22T21:50:00.836Z,101363.48
2018-09-22T21:52:29.960Z,101368.51
2018-09-22T21:54:59.018Z,101368.93
2018-09-22T21:57:27.942Z,101365.34
2018-09-22T21:59:57.209Z,101364.09
2018-09-22T22:02:26.516Z,101358.28
2018-09-22T22:04:55.547Z,101349.09
2018-09-22T22:07:24.938Z,101351.61
2018-09-22T22:09:54.540Z,101342.28
2018-09-22T22:12:23.424Z,101338.77
2018-09-22T22:14:52.315Z,101337.93
2018-09-22T22:17:21.185Z,101335.67
2018-09-22T22:19:50.684Z,101327.73
2018-09-22T22:22:20.602Z,101317.97
2018-09-22T22:24:50.599Z,101310.86
2018-09-22T22:27:19.821Z,101314.65
2018-09-22T22:29:49.352Z,101318.88
2018-09-22T22:32:18.681Z,101317.77
2018-09-22T22:34:48.380Z,101314.38
2018-09-22T22:37:18.555Z,101312.19
2018-09-22T22:39:48.454Z,101314.09
2018-09-22T22:42:20.541Z,101307.97
2018-09-22T22:44:50.554Z,101307.55
2018-09-22T22:47:20.202Z,101307.03
2018-09-22T22:49:49.314Z,101301.87
2018-09-22T22:52:19.449Z,101297.78
2018-09-22T22:54:48.331Z,101291.95
2018-09-22T22:57:18.395Z,101289.92
2018-09-22T22:59:47.223Z,101293.89
2018-09-22T23:02:17.280Z,101290.52
2018-09-22T23:04:46.827Z,101294.41
2018-09-22T23:07:16.693Z,101284.64
2018-09-22T23:09:45.621Z,101290.24
2018-09-22T23:12:14.899Z,101285.02
2018-09-22T23:14:45.446Z,101282.00
2018-09-22T23:17:15.238Z,101280.19
2018-09-22T23:19:45.275Z,101266.72
2018-09-22T23:22:14.173Z,101263.14
2018-09-22T23:24:45.082Z,101248.60
2018-09-22T23:27:14.107Z,101251.25
2018-09-22T23:29:44.127Z,101251.90
2018-09-22T23:32:13.499Z,101249.06
2018-09-22T23:34:42.508Z,101251.71
2018-09-22T23:37:11.389Z,101256.12
2018-09-22T23:39:40.601Z,101250.84
2018-09-22T23:42:09.403Z,101233.15
2018-09-22T23:44:38.782Z,101224.28
2018-09-22T23:47:07.745Z,101222.96
2018-09-22T23:49:36.746Z,101220.59
2018-09-22T23:52:05.563Z,101227.61
2018-09-22T23:54:35.346Z,101224.97
2018-09-22T23:57:04.181Z,101229.77
2018-09-22T23:59:33.444Z,101213.64
